Glade Park, CO (81523)

7:04 AM MDT on September 02, 2014 (GMT -0600)
Unaweep Canyon | Change Station
CLOSE
Current Station
Personal Weather Station
Location: Colorado, CO
Elevation: 6923 ft
Nearby Weather Stations

Elev 6923 ft 38.81 °N, 108.62 °W | Updated 3 minutes ago

Clear
Clear
45.5 °F
Feels Like 44 °F
N
3.7
Wind Variable Wind from WSW

Today
High -- | Low -- °F
--% Chance of Precip.
Yesterday
High -- | Low -- °F
Precip. -- in
6:44 AM 7:43 PM
Waxing Crescent, 51% visible
Pressure 30.16 in
Visibility 10.0 miles
Clouds Clear
Windchill 44 °F
Dew Point 35 °F
Humidity 67%
Rainfall 0.00 in
Snow Depth Not available.
UV 0 out of 12
Pollen 9.20 out of 12
Air Quality Not available.
Flu Activity Not available.
METAR KAJZ 021255Z AUTO 06006KT 10SM CLR 13/03 A3016 RMK AO2 T01250034

More Conditions Fewer Conditions

Pressure 30.16 in
Visibility 10.0 miles
Clouds Clear
Windchill 44 °F
Dew Point 35 °F
Humidity 67%
Rainfall 0.00 in
Snow Depth Not available.
UV 0 out of 12
Pollen 9.20 out of 12
Air Quality Not available.
Flu Activity Not available.
METAR KAJZ 021255Z AUTO 06006KT 10SM CLR 13/03 A3016 RMK AO2 T01250034

More Conditions Fewer Conditions

10-Day Weather Forecast

Almanac

Astronomy

Sep. 02, 2014 Rise Set
Actual Time 6:44 AM MDT 7:43 PM MDT
Civil Twilight 6:17 AM MDT 8:10 PM MDT
Nautical Twilight 5:44 AM MDT 8:43 PM MDT
Astronomical Twilight 5:11 AM MDT 9:16 PM MDT
Moon 2:28 PM MDT No Moon Set
Length of Visible Light 13h 53m
Length of Day
12h 59m
Tomorrow will be 2m 27s shorter.
Waxing Crescent, 51% of the Moon is Illuminated
Today
Waxing Crescent
Sep 8
Full
Sep 15
Last Quarter
Sep 24
New
Oct 1
First Quarter

Today's Extremes

State Highs State Lows

Community

WunderPhotos

Upload Photos

1,749,648 photos uploaded!

Nearby

Snow Depth

Station Depth Elevation
Mesa Lakes 1 in 10000 ft
Columbine Pass 1 in 9400 ft
Park Reservoir 0 in 9960 ft
Overland Reservoir 0 in 9880 ft
McClure Pass 3 in 9500 ft

Earthquake Activity

City Distance Mag. Time & Date
No recent earthquake activity has been reported nearby.
Minimum magnitude displayed is 2.5.

Coastal Water Temperatures

Place Temperature
No Stations Reporting

Nearby Weather Stations